Airport Name : Port Moresby Jacksons Intl

Other Name : Port Moresby

ICAO : AYPY

IATA : POM

FAA :

Latitude : -9.443383

Longitude : 147.22005

Country : Papua New Guinea

Local Date and Time : 19 Jul 2024 08:42

 

TAF (Terminal Aerodrome Forecast)

 

METAR (METeorological Aerodrome Report)

AYPY 182200Z 15015KT 9999 HZ FEW020 BKN035 23/21 Q1016

AYPY 182100Z 15010KT 9999 HZ FEW010 SCT025 BKN050 23/21 Q1015

AYPY 182000Z 15015G20KT 9999 FEW010 OVC075 23/21 Q1015

AYPY 181900Z 15015G20KT 9999 FEW010 SCT070 OVC080 23/21 Q1015